Edgewood, Indiana
Current Conditions -  °F | °C
As of 9:53 PM on Monday 26 Jan 2015 (Local Time) from KBMG Reporting Station
Haze Haze  
Wind Chill: 27°   Ceiling: 900
Heat Index: 27°   Visibility: 5mi
Dew Point: 25°   Wind: 3mph
Humidity: 92%   Direction: 240°WSW
Pressure: 29.92"   Gusts: NA
Location:  38.8737°N, 86.4563°W
Report Text: KBMG 270253Z AUTO 24003KT 5SM BR OVC009 M03/M04 A2992 RMK AO2 SNE0157 SLP139 P0000 60000 T10281039 58003
Loading
Personal Weather Stations






























Interactive Weather Map New forecast layout! Learn more

10-Day Weather Forecast

Advertisements
Track Severe Weather on mobile